Time;durP1;ratioP1;P1;durP2;ratioP2;P2;SDS_P1;SDS_P2;PMS_P1;PMS_P2;Temp;Humidity;BMP_temperature;BMP_pressure;BME280_temperature;BME280_humidity;BME280_pressure;Samples;Min_cycle;Max_cycle;Signal;HPM_P1;HPM_P2
2022/10/22 00:00:17;;;;;;;5.13;2.00;;;;;;;4.79;100.00;99032.81;5173619;27;20140;-58
2022/10/22 00:02:44;;;;;;;3.30;2.33;;;;;;;4.69;100.00;99007.63;5173539;27;20050;-58
2022/10/22 00:05:11;;;;;;;2.60;2.08;;;;;;;4.88;100.00;98996.31;5173537;27;20520;-58
2022/10/22 00:07:37;;;;;;;4.05;1.70;;;;;;;4.77;100.00;99002.50;5173396;27;20133;-58
2022/10/22 00:10:05;;;;;;;4.93;2.10;;;;;;;4.90;100.00;99026.69;5173352;27;20058;-58
2022/10/22 00:12:33;;;;;;;3.42;2.20;;;;;;;4.51;100.00;99043.38;5173236;27;20053;-58
2022/10/22 00:14:59;;;;;;;3.78;2.30;;;;;;;4.56;100.00;99124.63;5173221;27;20050;-58
2022/10/22 00:17:25;;;;;;;3.47;1.73;;;;;;;4.24;100.00;99084.19;5173447;27;20050;-58
2022/10/22 00:19:52;;;;;;;2.72;1.70;;;;;;;4.40;100.00;99151.53;5173076;27;20053;-58
2022/10/22 00:22:18;;;;;;;4.35;1.80;;;;;;;4.42;100.00;99143.84;5173308;27;20064;-58
2022/10/22 00:24:44;;;;;;;5.10;1.98;;;;;;;4.52;100.00;99146.19;5172963;27;20089;-58
2022/10/22 00:27:11;;;;;;;2.47;1.65;;;;;;;4.09;100.00;99130.81;5173053;27;20053;-58
2022/10/22 00:29:38;;;;;;;2.95;1.95;;;;;;;4.52;100.00;99167.91;5173031;27;20050;-58
2022/10/22 00:32:05;;;;;;;2.85;1.90;;;;;;;4.24;100.00;99165.59;5173286;27;20453;-57
2022/10/22 00:34:32;;;;;;;2.63;1.85;;;;;;;4.56;100.00;99160.72;5172821;27;20054;-58
2022/10/22 00:36:58;;;;;;;3.83;1.65;;;;;;;4.41;100.00;99145.75;5172899;27;20046;-58
2022/10/22 00:39:26;;;;;;;1.95;1.75;;;;;;;4.58;100.00;99138.69;5172701;27;20192;-58
2022/10/22 00:41:54;;;;;;;5.50;1.60;;;;;;;4.36;100.00;99142.41;5172747;27;20054;-58
2022/10/22 00:45:00;;;;;;;3.38;1.63;;;;;;;4.03;100.00;99193.72;5172890;27;20114;-57
2022/10/22 00:47:30;;;;;;;3.20;1.60;;;;;;;4.09;100.00;99268.41;5172727;27;20042;-58
2022/10/22 00:49:58;;;;;;;18.63;2.30;;;;;;;4.35;100.00;99258.31;5172950;27;20046;-58
2022/10/22 00:52:24;;;;;;;3.40;1.95;;;;;;;4.65;100.00;99212.28;5172008;27;20095;-58
2022/10/22 00:54:51;;;;;;;3.83;1.58;;;;;;;4.54;100.00;99178.47;5172978;27;20409;-58
2022/10/22 00:57:19;;;;;;;2.80;1.58;;;;;;;4.80;100.00;99113.97;5172527;27;20052;-57
2022/10/22 00:59:46;;;;;;;2.75;1.80;;;;;;;4.45;100.00;99080.75;5172610;27;20042;-58
2022/10/22 01:02:14;;;;;;;3.30;1.70;;;;;;;4.21;100.00;99122.03;5172576;27;20054;-58
2022/10/22 01:04:40;;;;;;;2.97;1.85;;;;;;;4.44;100.00;99174.97;5172366;27;20509;-58
2022/10/22 01:07:11;;;;;;;2.45;1.75;;;;;;;3.97;100.00;99165.97;5172606;27;20073;-58
2022/10/22 01:09:42;;;;;;;2.47;1.77;;;;;;;4.45;100.00;99224.63;5172798;27;20050;-58
2022/10/22 01:12:18;;;;;;;3.17;1.90;;;;;;;4.57;100.00;99184.03;5172150;27;20053;-56
2022/10/22 01:14:57;;;;;;;2.58;1.83;;;;;;;4.23;100.00;99114.34;5172286;27;20137;-56
2022/10/22 01:17:34;;;;;;;2.40;1.55;;;;;;;4.28;100.00;99164.97;5172688;27;20082;-57
2022/10/22 01:20:11;;;;;;;4.95;2.20;;;;;;;4.28;100.00;99192.09;5172452;27;20470;-58
2022/10/22 01:22:41;;;;;;;7.03;1.55;;;;;;;4.17;100.00;99199.78;5172177;27;20057;-58
2022/10/22 01:25:16;;;;;;;2.65;1.65;;;;;;;4.42;100.00;99190.78;5172319;27;20072;-58
2022/10/22 01:27:54;;;;;;;2.30;1.75;;;;;;;4.16;100.00;99181.88;5172157;27;20643;-58
2022/10/22 01:30:22;;;;;;;1.65;1.50;;;;;;;4.36;100.00;99172.25;5172306;27;20487;-58
2022/10/22 01:32:52;;;;;;;2.05;1.70;;;;;;;4.36;100.00;99173.06;5171892;27;20053;-58
2022/10/22 01:35:23;;;;;;;4.07;1.90;;;;;;;4.24;100.00;99189.22;5172079;27;20046;-58
2022/10/22 01:37:53;;;;;;;5.03;1.70;;;;;;;4.28;100.00;99194.81;5172015;27;20070;-57
2022/10/22 01:40:21;;;;;;;2.08;1.55;;;;;;;4.20;100.00;99229.00;5171941;27;20553;-58
2022/10/22 01:42:55;;;;;;;4.82;1.70;;;;;;;4.27;100.00;99195.94;5171989;27;20077;-58
2022/10/22 01:45:23;;;;;;;4.82;2.05;;;;;;;4.09;100.00;99195.94;5171968;27;20046;-58
2022/10/22 01:47:59;;;;;;;6.20;2.33;;;;;;;3.93;100.00;99213.81;5171860;27;20119;-58
2022/10/22 01:51:08;;;;;;;3.90;2.13;;;;;;;4.17;100.00;99273.03;5171844;27;20050;-58
2022/10/22 01:53:44;;;;;;;3.17;1.40;;;;;;;4.15;100.00;99245.41;5171427;27;20064;-58
2022/10/22 01:56:23;;;;;;;2.60;1.52;;;;;;;4.02;100.00;99233.59;5171951;27;20451;-58
2022/10/22 01:58:57;;;;;;;5.45;1.80;;;;;;;4.38;100.00;99232.47;5171680;27;20402;-58
2022/10/22 02:01:30;;;;;;;1.88;1.60;;;;;;;4.32;100.00;99171.31;5171892;27;20042;-58
2022/10/22 02:04:04;;;;;;;4.90;1.70;;;;;;;4.55;100.00;99139.31;5172333;27;20474;-58
2022/10/22 02:06:33;;;;;;;3.42;1.75;;;;;;;4.27;100.00;99155.22;5175261;27;20054;-57
2022/10/22 02:09:01;;;;;;;1.75;1.40;;;;;;;4.16;100.00;99147.41;5175066;27;20045;-58
2022/10/22 02:11:28;;;;;;;3.50;1.85;;;;;;;4.23;100.00;99149.63;5175621;27;20578;-58
2022/10/22 02:13:59;;;;;;;2.88;1.70;;;;;;;4.32;100.00;99157.75;5175037;27;20413;-58
2022/10/22 02:16:29;;;;;;;3.08;2.13;;;;;;;4.38;100.00;99164.59;5175100;27;20466;-58
2022/10/22 02:18:59;;;;;;;3.85;1.60;;;;;;;4.38;100.00;99132.03;5175516;27;20158;-58
2022/10/22 02:21:27;;;;;;;2.15;1.48;;;;;;;4.31;100.00;99139.88;5175160;27;20099;-58
2022/10/22 02:23:53;;;;;;;3.33;2.20;;;;;;;4.45;100.00;99122.25;5174988;27;20046;-57
2022/10/22 02:26:24;;;;;;;4.28;1.90;;;;;;;4.39;100.00;99087.47;5175006;27;20081;-58
2022/10/22 02:28:59;;;;;;;4.30;1.80;;;;;;;4.26;100.00;99127.28;5175076;27;20046;-58
2022/10/22 02:31:29;;;;;;;3.33;1.70;;;;;;;4.28;100.00;99182.03;5174725;27;20046;-58
2022/10/22 02:34:03;;;;;;;2.88;1.60;;;;;;;4.28;100.00;99189.38;5174908;27;20421;-58
2022/10/22 02:36:30;;;;;;;2.47;1.70;;;;;;;4.01;100.00;99164.19;5174703;27;20093;-57
2022/10/22 02:38:57;;;;;;;3.55;1.90;;;;;;;4.27;100.00;99228.50;5174868;27;20058;-58
2022/10/22 02:41:24;;;;;;;4.22;1.77;;;;;;;4.12;100.00;99214.28;5174665;27;20052;-58
2022/10/22 02:43:54;;;;;;;2.55;1.80;;;;;;;4.39;100.00;99215.84;5174658;27;20082;-58
2022/10/22 02:46:21;;;;;;;3.60;2.28;;;;;;;4.43;100.00;99156.28;5174889;27;20085;-57
2022/10/22 02:48:48;;;;;;;2.95;2.10;;;;;;;4.56;100.00;99081.19;5174611;27;20050;-58
2022/10/22 02:51:14;;;;;;;4.78;1.95;;;;;;;4.31;100.00;99056.53;5174692;27;20457;-58
2022/10/22 02:53:40;;;;;;;4.25;1.80;;;;;;;4.32;100.00;99138.75;5174513;27;20094;-58
2022/10/22 02:56:07;;;;;;;4.35;1.98;;;;;;;4.27;100.00;99174.22;5174402;27;20106;-58
2022/10/22 02:58:33;;;;;;;5.65;2.35;;;;;;;4.37;100.00;99125.03;5174355;27;20556;-57
2022/10/22 03:00:59;;;;;;;3.30;1.95;;;;;;;4.34;100.00;99147.38;5174457;27;20425;-58
2022/10/22 03:03:26;;;;;;;4.72;1.98;;;;;;;4.19;100.00;99182.03;5174218;27;20096;-57
2022/10/22 03:05:52;;;;;;;2.88;2.00;;;;;;;4.37;100.00;99171.97;5174593;27;20046;-57
2022/10/22 03:08:19;;;;;;;3.33;2.40;;;;;;;4.44;100.00;99166.03;5174328;27;20057;-58
2022/10/22 03:10:45;;;;;;;4.45;2.03;;;;;;;4.19;100.00;99149.47;5174596;27;20049;-58
2022/10/22 03:13:11;;;;;;;4.18;2.35;;;;;;;4.45;100.00;99178.47;5174716;27;20379;-58
2022/10/22 03:15:37;;;;;;;4.15;2.40;;;;;;;4.28;100.00;99106.03;5174095;27;20054;-58
2022/10/22 03:18:04;;;;;;;3.17;2.30;;;;;;;4.31;100.00;99129.03;5174317;27;20078;-58
2022/10/22 03:20:30;;;;;;;3.00;1.67;;;;;;;4.21;100.00;99149.97;5174121;27;20411;-57
2022/10/22 03:22:57;;;;;;;3.55;2.55;;;;;;;4.17;100.00;99178.88;5174305;27;20082;-58
2022/10/22 03:25:26;;;;;;;3.03;2.03;;;;;;;3.82;100.00;99197.06;5173969;27;20597;-58
2022/10/22 03:27:55;;;;;;;3.53;2.00;;;;;;;4.23;100.00;99242.72;5174238;27;20565;-58
2022/10/22 03:30:21;;;;;;;7.55;2.08;;;;;;;4.21;100.00;99246.84;5174019;27;20141;-56
2022/10/22 03:32:47;;;;;;;2.25;1.67;;;;;;;4.13;100.00;99237.59;5174069;27;20488;-58
2022/10/22 03:35:14;;;;;;;2.20;1.92;;;;;;;4.54;100.00;99206.41;5174067;27;20054;-57
2022/10/22 03:37:40;;;;;;;3.33;2.05;;;;;;;4.39;100.00;99130.91;5174008;27;20082;-58
2022/10/22 03:40:10;;;;;;;3.45;2.28;;;;;;;4.07;100.00;99148.56;5173979;27;20042;-58
2022/10/22 03:42:36;;;;;;;2.95;1.95;;;;;;;3.93;100.00;99181.25;5173831;27;20046;-58
2022/10/22 03:45:03;;;;;;;4.85;2.33;;;;;;;4.05;100.00;99241.09;5174010;27;20051;-58
2022/10/22 03:47:30;;;;;;;3.08;2.15;;;;;;;4.35;100.00;99200.53;5173981;27;20046;-58
2022/10/22 03:49:56;;;;;;;7.13;2.35;;;;;;;4.30;100.00;99152.66;5174037;27;20701;-58
2022/10/22 03:52:22;;;;;;;6.50;2.17;;;;;;;4.37;100.00;99103.31;5173745;27;20081;-58
2022/10/22 03:54:48;;;;;;;3.47;2.15;;;;;;;4.51;100.00;99119.38;5173678;27;20505;-58
2022/10/22 03:57:15;;;;;;;14.45;2.72;;;;;;;4.40;100.00;99089.88;5173325;27;20054;-58
2022/10/22 03:59:44;;;;;;;7.03;1.90;;;;;;;4.24;100.00;99133.03;5173473;27;20046;-58
2022/10/22 04:02:11;;;;;;;4.82;1.90;;;;;;;4.27;100.00;99126.16;5173859;27;20058;-58
2022/10/22 04:04:37;;;;;;;5.53;2.17;;;;;;;4.46;100.00;99142.88;5173478;27;20524;-57
2022/10/22 04:07:04;;;;;;;5.25;2.13;;;;;;;4.38;100.00;99129.31;5173448;27;20141;-58
2022/10/22 04:09:31;;;;;;;4.13;2.10;;;;;;;4.13;100.00;99103.84;5173294;27;20050;-58
2022/10/22 04:11:57;;;;;;;7.55;2.13;;;;;;;4.15;100.00;99145.03;5173472;27;20496;-58
2022/10/22 04:14:24;;;;;;;6.88;3.00;;;;;;;4.10;100.00;99186.69;5173262;27;20046;-58
2022/10/22 04:16:50;;;;;;;3.78;2.38;;;;;;;3.99;100.00;99226.09;5173378;27;20093;-58
2022/10/22 04:19:17;;;;;;;4.85;2.42;;;;;;;4.37;100.00;99236.31;5173002;27;20085;-58
2022/10/22 04:21:43;;;;;;;4.50;1.85;;;;;;;4.22;100.00;99175.97;5173278;27;20042;-58
2022/10/22 04:24:10;;;;;;;3.47;2.13;;;;;;;4.43;100.00;99157.09;5173020;27;20118;-58
2022/10/22 04:26:36;;;;;;;4.32;2.28;;;;;;;4.51;100.00;99071.31;5171899;27;20046;-57
2022/10/22 04:29:02;;;;;;;4.22;2.72;;;;;;;4.57;100.00;99047.50;5172837;27;20085;-57
2022/10/22 04:31:29;;;;;;;4.00;2.47;;;;;;;4.25;100.00;99020.66;5172932;27;20054;-58
2022/10/22 04:33:57;;;;;;;3.85;2.58;;;;;;;4.15;100.00;99080.69;5173179;27;20417;-58
2022/10/22 04:36:25;;;;;;;2.80;2.28;;;;;;;4.06;100.00;99109.75;5172855;27;20050;-58
2022/10/22 04:38:53;;;;;;;4.20;2.20;;;;;;;4.32;100.00;99120.56;5172891;27;20515;-57
2022/10/22 04:41:22;;;;;;;4.82;2.25;;;;;;;4.47;100.00;99081.25;5172799;27;20050;-58
2022/10/22 04:43:49;;;;;;;5.75;2.67;;;;;;;4.53;100.00;99025.59;5172908;27;20069;-57
2022/10/22 04:46:16;;;;;;;3.92;2.25;;;;;;;4.56;100.00;99008.66;5172733;27;20050;-58
2022/10/22 04:48:44;;;;;;;5.93;2.00;;;;;;;4.06;100.00;98995.03;5172832;27;20046;-58
2022/10/22 04:51:13;;;;;;;6.85;2.60;;;;;;;4.14;100.00;99040.34;5172629;27;20050;-58
2022/10/22 04:53:39;;;;;;;6.70;2.40;;;;;;;4.23;100.00;99070.94;5172594;27;20183;-58
2022/10/22 04:56:07;;;;;;;3.53;2.15;;;;;;;4.20;100.00;99085.97;5172829;27;20092;-58
2022/10/22 04:58:33;;;;;;;8.30;2.83;;;;;;;4.41;100.00;99096.09;5172660;27;20129;-57
2022/10/22 05:01:00;;;;;;;12.55;2.78;;;;;;;4.11;100.00;99070.84;5172807;27;20046;-57
2022/10/22 05:03:26;;;;;;;4.05;2.67;;;;;;;4.24;100.00;99154.75;5172870;27;20396;-58
2022/10/22 05:05:53;;;;;;;5.22;2.50;;;;;;;4.36;100.00;99140.50;5172717;27;20050;-58
2022/10/22 05:08:19;;;;;;;5.53;2.53;;;;;;;4.38;100.00;99108.41;5172323;27;20050;-58
2022/10/22 05:10:45;;;;;;;4.65;3.05;;;;;;;3.93;100.00;99091.75;5172658;27;20082;-59
2022/10/22 05:13:11;;;;;;;3.63;2.47;;;;;;;4.17;100.00;99113.75;5172291;27;20042;-58
2022/10/22 05:15:38;;;;;;;7.43;2.28;;;;;;;4.06;100.00;99122.53;5172658;27;20056;-58
2022/10/22 05:18:04;;;;;;;4.45;2.63;;;;;;;4.20;100.00;99144.88;5172212;27;20098;-58
2022/10/22 05:20:30;;;;;;;7.00;2.40;;;;;;;4.62;100.00;99118.69;5172094;27;20088;-58
2022/10/22 05:22:57;;;;;;;5.95;2.97;;;;;;;4.23;100.00;99051.94;5171945;27;20050;-58
2022/10/22 05:25:23;;;;;;;23.00;3.22;;;;;;;4.15;100.00;99105.13;5172359;27;20134;-58
2022/10/22 05:27:50;;;;;;;10.65;2.83;;;;;;;4.55;100.00;99128.47;5172377;27;20046;-58
2022/10/22 05:30:16;;;;;;;5.13;2.78;;;;;;;4.31;100.00;99105.41;5172076;27;20057;-58
2022/10/22 05:32:43;;;;;;;7.60;2.58;;;;;;;4.34;100.00;99082.25;5172242;27;20472;-58
2022/10/22 05:35:09;;;;;;;4.93;2.63;;;;;;;4.07;100.00;99107.88;5172044;27;20054;-58
2022/10/22 05:37:36;;;;;;;3.53;2.72;;;;;;;4.11;100.00;99115.03;5172332;27;20409;-58
2022/10/22 05:40:03;;;;;;;3.75;2.50;;;;;;;4.03;100.00;99153.81;5175595;27;20046;-58
2022/10/22 05:42:31;;;;;;;10.45;3.08;;;;;;;4.07;100.00;99198.19;5175818;27;20047;-58
2022/10/22 05:44:58;;;;;;;5.97;2.65;;;;;;;3.90;100.00;99214.44;5175434;27;20046;-57
2022/10/22 05:47:24;;;;;;;4.07;2.30;;;;;;;4.25;100.00;99239.66;5175620;27;20046;-58
2022/10/22 05:49:50;;;;;;;10.05;2.53;;;;;;;4.19;100.00;99230.88;5175411;27;20050;-58
2022/10/22 05:52:16;;;;;;;8.48;2.90;;;;;;;4.59;100.00;99205.44;5175444;27;20497;-58
2022/10/22 05:54:43;;;;;;;5.45;2.85;;;;;;;4.92;100.00;99100.47;5175730;27;20413;-58
2022/10/22 05:57:09;;;;;;;4.95;2.63;;;;;;;4.83;100.00;99006.59;5175534;27;20470;-58
2022/10/22 05:59:36;;;;;;;4.85;2.95;;;;;;;4.64;100.00;98990.75;5175660;27;20484;-58
2022/10/22 06:02:02;;;;;;;6.00;3.20;;;;;;;4.44;100.00;98989.59;5175374;27;20050;-58
2022/10/22 06:04:28;;;;;;;5.35;3.28;;;;;;;4.17;100.00;99091.25;5175435;27;20050;-58
2022/10/22 06:06:55;;;;;;;6.15;3.17;;;;;;;4.25;100.00;99106.69;5175133;27;20054;-58
2022/10/22 06:09:24;;;;;;;8.50;3.10;;;;;;;4.53;100.00;99107.06;5175203;27;20429;-58
2022/10/22 06:11:50;;;;;;;4.60;2.53;;;;;;;4.65;100.00;99109.88;5175272;27;20398;-58
2022/10/22 06:14:18;;;;;;;5.10;2.90;;;;;;;4.33;100.00;99070.59;5175362;27;20084;-58
2022/10/22 06:16:44;;;;;;;6.82;2.65;;;;;;;4.61;100.00;99057.38;5174881;27;20140;-58
2022/10/22 06:19:14;;;;;;;8.35;2.70;;;;;;;4.45;100.00;99059.81;5175005;27;20052;-58
2022/10/22 06:21:41;;;;;;;4.85;2.70;;;;;;;4.61;100.00;99079.09;5175162;27;20046;-58
2022/10/22 06:24:08;;;;;;;6.88;3.70;;;;;;;4.85;100.00;99007.06;5174860;27;20081;-59
2022/10/22 06:26:35;;;;;;;4.38;2.80;;;;;;;4.74;100.00;98946.91;5175033;27;20219;-58
2022/10/22 06:29:01;;;;;;;10.20;2.95;;;;;;;4.74;100.00;98989.56;5174865;27;20088;-58
2022/10/22 06:31:35;;;;;;;7.25;3.35;;;;;;;4.97;100.00;99012.56;5175118;27;20057;-58
2022/10/22 06:34:01;;;;;;;4.30;2.53;;;;;;;4.70;100.00;98906.06;5174823;27;20074;-58
2022/10/22 06:36:27;;;;;;;4.47;2.50;;;;;;;4.83;100.00;98925.09;5174927;27;20106;-58
2022/10/22 06:38:55;;;;;;;2.88;1.98;;;;;;;5.12;100.00;98907.91;5174839;27;20194;-58
2022/10/22 06:41:21;;;;;;;7.63;3.40;;;;;;;4.90;100.00;98846.59;5174846;27;20046;-58
2022/10/22 06:43:48;;;;;;;6.93;2.90;;;;;;;5.13;100.00;98853.25;5174643;27;20129;-58
2022/10/22 06:46:17;;;;;;;5.78;2.90;;;;;;;4.74;100.00;98775.81;5174514;27;20081;-58
2022/10/22 06:48:48;;;;;;;7.82;3.50;;;;;;;4.51;100.00;98815.34;5174760;27;20046;-58
2022/10/22 06:51:15;;;;;;;7.20;2.92;;;;;;;4.39;100.00;98859.50;5173945;27;20050;-58
2022/10/22 06:53:41;;;;;;;7.93;3.72;;;;;;;4.66;100.00;98959.41;5175211;27;20850;-57
2022/10/22 06:56:09;;;;;;;6.97;3.22;;;;;;;4.88;100.00;98882.25;5174611;27;20054;-58
2022/10/22 06:58:35;;;;;;;10.80;3.88;;;;;;;4.72;100.00;98879.34;5175075;27;20548;-58
2022/10/22 07:01:02;;;;;;;11.45;4.15;;;;;;;5.00;100.00;98856.22;5174453;27;20050;-58
2022/10/22 07:03:28;;;;;;;8.55;3.60;;;;;;;5.17;100.00;98826.97;5175032;27;20042;-58
2022/10/22 07:05:58;;;;;;;11.52;4.45;;;;;;;5.03;100.00;98730.59;5174315;27;20058;-58
2022/10/22 07:08:25;;;;;;;10.30;4.13;;;;;;;5.31;100.00;98723.38;5174712;27;20058;-58
2022/10/22 07:10:51;;;;;;;8.00;4.45;;;;;;;4.88;100.00;98704.91;5174579;27;20046;-58
2022/10/22 07:13:17;;;;;;;9.80;4.20;;;;;;;4.47;100.00;98725.63;5174535;27;20450;-58
2022/10/22 07:15:43;;;;;;;6.78;3.33;;;;;;;4.78;100.00;98808.53;5174753;27;20054;-58
2022/10/22 07:18:10;;;;;;;5.50;3.55;;;;;;;4.81;100.00;98776.06;5174295;27;20519;-58
2022/10/22 07:20:36;;;;;;;10.40;4.03;;;;;;;4.98;100.00;98777.81;5174270;27;20077;-58
2022/10/22 07:23:03;;;;;;;7.75;3.13;;;;;;;4.79;100.00;98791.09;5174301;27;20536;-58
2022/10/22 07:25:29;;;;;;;10.32;3.72;;;;;;;5.16;100.00;98771.03;5174052;27;20042;-58
2022/10/22 07:27:55;;;;;;;4.15;2.92;;;;;;;4.49;100.00;98701.66;5173904;27;20054;-58
2022/10/22 07:30:21;;;;;;;6.35;3.38;;;;;;;4.93;100.00;98765.25;5174297;27;20053;-58
2022/10/22 07:32:48;;;;;;;6.70;3.10;;;;;;;4.77;100.00;98701.84;5173942;27;20073;-58
2022/10/22 07:35:14;;;;;;;5.90;3.20;;;;;;;5.05;100.00;98687.59;5174224;27;20129;-58
2022/10/22 07:37:40;;;;;;;7.43;3.35;;;;;;;4.86;100.00;98702.50;5173767;27;20505;-58
2022/10/22 07:40:08;;;;;;;7.75;3.78;;;;;;;4.55;100.00;98735.59;5173887;27;20053;-58
2022/10/22 07:42:35;;;;;;;7.25;3.03;;;;;;;4.61;100.00;98783.13;5173737;27;20050;-59
2022/10/22 07:45:01;;;;;;;9.05;3.10;;;;;;;4.68;100.00;98805.09;5173558;27;20054;-58
2022/10/22 07:47:27;;;;;;;7.47;3.42;;;;;;;4.73;100.00;98749.78;5173701;27;20136;-58
2022/10/22 07:49:53;;;;;;;8.20;4.18;;;;;;;4.78;100.00;98770.50;5173490;27;20082;-58
2022/10/22 07:52:20;;;;;;;11.57;4.55;;;;;;;4.54;100.00;98749.53;5173870;27;20050;-58
2022/10/22 07:54:46;;;;;;;8.35;4.35;;;;;;;4.77;100.00;98796.09;5173437;27;20514;-58
2022/10/22 07:57:13;;;;;;;10.88;4.53;;;;;;;4.89;100.00;98796.91;5173724;27;20083;-58
2022/10/22 07:59:39;;;;;;;6.88;4.50;;;;;;;4.97;100.00;98767.28;5173082;27;20056;-58
2022/10/22 08:02:06;;;;;;;16.08;4.85;;;;;;;5.06;100.00;98735.34;5173415;27;20054;-58
2022/10/22 08:04:32;;;;;;;10.10;3.83;;;;;;;4.85;100.00;98692.00;5173130;27;20091;-58
2022/10/22 08:06:59;;;;;;;9.90;4.63;;;;;;;5.10;100.00;98647.41;5173269;27;20052;-58
2022/10/22 08:09:25;;;;;;;9.43;3.65;;;;;;;4.72;100.00;98642.31;5173147;27;20046;-58
2022/10/22 08:11:53;;;;;;;8.13;4.35;;;;;;;4.94;100.00;98736.16;5173224;27;20050;-58
2022/10/22 08:14:20;;;;;;;7.05;4.05;;;;;;;5.28;100.00;98701.50;5173225;27;20493;-58
2022/10/22 08:16:46;;;;;;;12.10;4.50;;;;;;;5.47;100.00;98590.25;5173316;27;20054;-58
2022/10/22 08:19:12;;;;;;;10.07;4.93;;;;;;;5.54;100.00;98535.28;5173420;27;20106;-58
2022/10/22 08:21:39;;;;;;;11.40;5.32;;;;;;;5.94;100.00;98513.47;5173174;27;20435;-58
2022/10/22 08:24:06;;;;;;;15.93;5.22;;;;;;;5.57;100.00;98413.03;5173289;27;20515;-58
2022/10/22 08:26:32;;;;;;;11.35;4.63;;;;;;;5.36;100.00;98461.38;5172663;27;20054;-58
2022/10/22 08:28:58;;;;;;;10.73;4.43;;;;;;;5.35;100.00;98436.13;5173096;27;20075;-58
2022/10/22 08:31:25;;;;;;;8.85;4.20;;;;;;;5.52;100.00;98488.63;5172727;27;20263;-58
2022/10/22 08:33:51;;;;;;;8.40;4.45;;;;;;;5.48;100.00;98479.59;5172996;27;20046;-58
2022/10/22 08:36:18;;;;;;;7.72;3.88;;;;;;;5.30;100.00;98471.75;5172651;27;20089;-58
2022/10/22 08:38:44;;;;;;;9.15;4.18;;;;;;;5.28;100.00;98484.09;5172668;27;20490;-58
2022/10/22 08:41:13;;;;;;;6.22;3.22;;;;;;;5.71;100.00;98453.41;5172987;27;20394;-58
2022/10/22 08:44:06;;;;;;;7.88;4.78;;;;;;;5.80;100.00;98396.13;5172545;27;20579;-58
2022/10/22 08:47:08;;;;;;;10.77;4.85;;;;;;;5.73;100.00;98357.84;5172587;27;20050;-58
2022/10/22 08:49:39;;;;;;;10.82;4.50;;;;;;;5.63;100.00;98367.31;5155504;27;20046;-59
2022/10/22 08:52:12;;;;;;;7.00;3.72;;;;;;;5.99;100.00;98352.66;5172785;27;20046;-58
2022/10/22 08:54:48;;;;;;;13.05;3.97;;;;;;;6.21;100.00;98288.63;5172519;27;20057;-58
2022/10/22 08:57:38;;;;;;;8.50;4.22;;;;;;;6.14;100.00;98261.25;5172720;27;20058;-58
2022/10/22 09:00:11;;;;;;;7.45;5.00;;;;;;;6.21;100.00;98250.53;5172546;27;20050;-59
2022/10/22 09:02:51;;;;;;;12.23;5.10;;;;;;;6.21;100.00;98250.53;5172374;27;20057;-58
2022/10/22 09:05:28;;;;;;;11.48;4.20;;;;;;;6.04;100.00;98213.63;5172630;27;20404;-59
2022/10/22 09:07:55;;;;;;;9.15;4.72;;;;;;;6.23;100.00;98263.75;5172376;27;20055;-59
2022/10/22 09:10:26;;;;;;;9.15;4.38;;;;;;;6.53;100.00;98228.56;5172614;27;20046;-59
2022/10/22 09:12:52;;;;;;;11.15;5.05;;;;;;;6.79;100.00;98193.25;5171932;27;20054;-58
2022/10/22 09:15:19;;;;;;;9.23;4.60;;;;;;;6.30;100.00;98195.88;5172108;27;20081;-59
2022/10/22 09:18:02;;;;;;;10.10;4.50;;;;;;;6.28;100.00;98196.22;5172532;27;20077;-59
2022/10/22 09:20:36;;;;;;;8.35;5.05;;;;;;;6.47;100.00;98184.53;5172065;27;20079;-58
2022/10/22 09:23:16;;;;;;;10.40;4.32;;;;;;;6.56;100.00;98163.31;5172446;27;20469;-58
2022/10/22 09:25:45;;;;;;;10.85;4.63;;;;;;;6.56;100.00;98178.81;5172067;27;20057;-59
2022/10/22 09:28:12;;;;;;;8.85;4.35;;;;;;;6.30;100.00;98193.16;5171952;27;20042;-59
2022/10/22 09:30:39;;;;;;;9.98;4.57;;;;;;;6.03;100.00;98197.66;5172183;27;20077;-59
2022/10/22 09:33:13;;;;;;;11.45;4.82;;;;;;;6.18;100.00;98221.28;5171872;27;20060;-59
2022/10/22 09:35:47;;;;;;;11.48;5.22;;;;;;;6.39;100.00;98231.81;5172250;27;20050;-59
2022/10/22 09:38:15;;;;;;;8.48;4.40;;;;;;;6.26;100.00;98224.94;5172078;27;20143;-59
2022/10/22 09:40:44;;;;;;;8.60;4.22;;;;;;;6.07;100.00;98242.06;5172141;27;20053;-59
2022/10/22 09:43:12;;;;;;;12.05;4.63;;;;;;;6.66;100.00;98208.19;5171707;27;20051;-59
2022/10/22 09:45:38;;;;;;;6.68;3.97;;;;;;;6.20;100.00;98202.69;5172098;27;20043;-59
2022/10/22 09:48:12;;;;;;;8.70;4.68;;;;;;;6.60;100.00;98193.31;5171968;27;20494;-59
2022/10/22 09:50:43;;;;;;;6.55;4.20;;;;;;;6.60;100.00;98177.75;5172107;27;20046;-58
2022/10/22 09:53:14;;;;;;;10.60;4.53;;;;;;;6.77;100.00;98157.44;5171869;27;20046;-58
2022/10/22 09:55:41;;;;;;;12.90;4.60;;;;;;;6.81;100.00;98141.91;5171739;27;20505;-59
2022/10/22 09:58:10;;;;;;;13.02;4.50;;;;;;;7.15;100.00;98114.00;5172229;27;20054;-59
2022/10/22 10:00:38;;;;;;;19.05;4.68;;;;;;;7.24;100.00;98111.81;5171725;27;20050;-59
2022/10/22 10:03:04;;;;;;;7.38;4.63;;;;;;;7.75;100.00;98094.94;5171831;27;20050;-59
2022/10/22 10:05:33;;;;;;;10.85;4.97;;;;;;;7.47;100.00;98089.91;5171766;27;20056;-59
2022/10/22 10:08:11;;;;;;;8.30;5.20;;;;;;;6.94;100.00;98103.59;5171971;27;20050;-59
2022/10/22 10:10:44;;;;;;;9.93;4.72;;;;;;;6.82;100.00;98110.00;5171547;27;20463;-59
2022/10/22 10:13:46;;;;;;;7.53;4.73;;;;;;;6.79;100.00;98119.69;5171642;27;20092;-58
2022/10/22 10:16:28;;;;;;;10.27;5.22;;;;;;;6.93;100.00;98127.31;5066671;28;20291;-58
2022/10/22 10:19:20;;;;;;;13.60;5.63;;;;;;;7.17;100.00;98106.25;5161976;27;20058;-59
2022/10/22 10:22:00;;;;;;;10.52;5.50;;;;;;;7.44;100.00;98091.44;5171758;27;20043;-59
2022/10/22 10:24:37;;;;;;;14.48;6.28;;;;;;;7.34;100.00;98086.63;5171403;27;20505;-59
2022/10/22 10:27:10;;;;;;;14.00;5.72;;;;;;;6.77;100.00;98104.88;5174772;27;20538;-59
2022/10/22 10:29:49;;;;;;;19.98;7.40;;;;;;;7.26;100.00;98101.31;5175030;27;20050;-59
2022/10/22 10:32:42;;;;;;;12.50;5.07;;;;;;;6.93;100.00;98091.09;5174802;27;20054;-59
2022/10/22 10:35:21;;;;;;;16.33;5.97;;;;;;;7.11;100.00;98075.03;5174757;27;20058;-58
2022/10/22 10:38:04;;;;;;;13.70;5.90;;;;;;;7.15;100.00;98075.84;5174664;27;20046;-58
2022/10/22 10:40:37;;;;;;;9.27;5.55;;;;;;;6.92;100.00;98067.75;5175002;27;20509;-58
2022/10/22 10:43:09;;;;;;;18.90;6.05;;;;;;;6.81;100.00;98064.84;5175029;27;20058;-58
2022/10/22 10:45:44;;;;;;;15.35;6.50;;;;;;;7.01;100.00;98065.53;5174542;27;20105;-58
2022/10/22 10:48:23;;;;;;;13.60;5.50;;;;;;;6.78;100.00;98063.66;5175046;27;20060;-58
2022/10/22 10:50:59;;;;;;;11.65;5.68;;;;;;;6.75;100.00;98063.59;5174486;27;20057;-58
2022/10/22 10:53:40;;;;;;;13.63;5.43;;;;;;;6.95;100.00;98070.50;5174719;27;20046;-58
2022/10/22 10:56:25;;;;;;;19.00;6.13;;;;;;;7.35;100.00;98057.41;5174432;27;20046;-59
2022/10/22 10:58:58;;;;;;;11.10;5.28;;;;;;;6.67;100.00;98051.81;5174542;27;20052;-59
2022/10/22 11:01:36;;;;;;;15.17;5.80;;;;;;;7.06;100.00;98065.22;5174404;27;20050;-58
2022/10/22 11:04:27;;;;;;;16.63;6.18;;;;;;;6.74;100.00;98067.47;5174275;27;20080;-58
2022/10/22 11:06:56;;;;;;;12.65;6.30;;;;;;;6.73;100.00;98084.94;5174594;27;20083;-58
2022/10/22 11:09:26;;;;;;;16.83;6.65;;;;;;;7.19;100.00;98080.19;5174094;27;20046;-58
2022/10/22 11:11:59;;;;;;;11.95;5.75;;;;;;;7.40;100.00;98068.78;5174326;27;20078;-58
2022/10/22 11:14:31;;;;;;;15.48;6.05;;;;;;;6.57;100.00;98074.22;5174596;27;20082;-58
2022/10/22 11:17:04;;;;;;;13.10;6.07;;;;;;;7.19;100.00;98084.84;5174165;27;20102;-58
2022/10/22 11:19:36;;;;;;;11.02;7.00;;;;;;;6.69;100.00;98078.66;5174404;27;20050;-58
2022/10/22 11:22:08;;;;;;;12.63;6.75;;;;;;;6.51;100.00;98132.84;5174211;27;20077;-59
2022/10/22 11:24:42;;;;;;;15.20;7.15;;;;;;;6.86;100.00;98135.38;5174312;27;20061;-59
2022/10/22 11:27:21;;;;;;;14.13;7.03;;;;;;;6.34;100.00;98147.72;5174419;27;20053;-59
2022/10/22 11:29:55;;;;;;;14.02;6.60;;;;;;;6.52;100.00;98170.59;5173945;27;20046;-59
2022/10/22 11:32:25;;;;;;;11.45;6.05;;;;;;;6.26;100.00;98195.78;5174037;27;20084;-59
2022/10/22 11:34:55;;;;;;;15.43;7.55;;;;;;;6.26;100.00;98223.00;5174077;27;20081;-59
2022/10/22 11:37:23;;;;;;;20.23;7.50;;;;;;;6.95;100.00;98200.53;5173675;27;20516;-59
2022/10/22 11:39:54;;;;;;;14.80;6.38;;;;;;;6.35;100.00;98188.19;5173823;27;20046;-59
2022/10/22 11:42:22;;;;;;;16.90;7.68;;;;;;;6.56;100.00;98242.28;5173910;27;20046;-59